EDT,Max TemperatureF,Mean TemperatureF,Min TemperatureF,Max Dew PointF,MeanDew PointF,Min DewpointF,Max Humidity, Mean Humidity, Min Humidity, Max Sea Level PressureIn, Mean Sea Level PressureIn, Min Sea Level PressureIn, Max VisibilityMiles, Mean VisibilityMiles, Min VisibilityMiles, Max Wind SpeedMPH, Mean Wind SpeedMPH, Max Gust SpeedMPH,PrecipitationIn, CloudCover, Events, WindDirDegrees
2013-9-1,89,82,75,77,74,73,94,81,59,29.97,29.92,29.85,10,9,6,23,6,23,0.00,1,,213
2013-9-2,91,84,78,77,74,70,84,77,55,29.98,29.89,29.83,10,10,10,17,9,18,0.00,2,,221
2013-9-3,89,80,71,75,71,68,89,79,59,29.96,29.89,29.84,10,10,2,21,8,29,0.00,1,Rain-Thunderstorm,237
2013-9-4,87,79,71,77,72,70,94,83,66,30.09,30.00,29.94,10,9,7,12,5,,0.00,1,,193
2013-9-5,87,80,73,75,73,68,94,83,66,30.10,30.05,30.02,10,8,4,12,2,,0.00,2,,227
2013-9-6,87,78,68,72,66,63,88,74,43,30.10,30.06,30.03,10,10,9,12,4,,0.00,0,,21
2013-9-7,82,74,66,70,66,63,94,82,54,30.10,30.06,30.00,10,10,10,10,8,,0.00,0,,34
2013-9-8,84,74,64,70,65,63,94,80,55,30.02,29.98,29.91,10,10,5,14,2,,0.00,1,,208
2013-9-9,84,76,68,73,68,64,94,77,62,30.15,30.06,29.99,10,10,9,13,2,,0.00,1,,127
2013-9-10,87,78,69,73,70,66,94,78,51,30.23,30.18,30.15,10,10,10,12,6,,0.00,1,,71
2013-9-11,84,76,69,72,68,66,94,80,55,30.21,30.16,30.10,10,10,8,13,6,,0.00,1,,26
2013-9-12,86,76,66,72,67,64,94,79,55,30.11,30.02,29.88,10,10,7,14,2,,0.00,0,,221
2013-9-13,87,80,73,73,68,64,89,75,49,29.88,29.82,29.75,10,10,10,14,8,20,0.00,2,,245
2013-9-14,82,75,68,66,63,59,83,70,54,30.10,29.93,29.82,10,10,10,15,11,21,0.00,3,,25
2013-9-15,82,74,66,72,67,63,94,82,70,30.19,30.13,30.09,10,10,10,16,10,,0.00,2,,58
2013-9-16,87,80,73,73,71,66,94,76,55,30.16,30.11,30.03,10,10,10,14,7,21,0.00,4,Thunderstorm,172
2013-9-17,78,72,66,70,61,57,88,70,47,30.23,30.17,30.11,10,10,10,17,11,23,0.00,4,Thunderstorm,39
2013-9-18,75,66,57,57,55,52,88,72,50,30.24,30.21,30.15,10,10,10,16,11,18,0.00,2,,17
2013-9-19,80,70,60,61,57,55,88,75,45,30.18,30.14,30.07,15,10,10,14,6,,0.00,0,,18
2013-9-20,80,70,60,64,60,57,94,75,51,30.10,30.06,29.98,10,10,10,14,3,,0.00,0,,141
2013-9-21,82,74,66,72,67,63,94,73,62,29.98,29.88,29.75,10,10,10,18,8,22,0.00,4,,195
2013-9-22,78,72,66,70,66,61,88,79,65,29.88,29.74,29.68,10,10,6,20,13,26,0.32,6,,263
2013-9-23,78,68,59,63,58,55,94,76,44,30.07,29.96,29.88,10,10,10,16,6,,0.00,0,,26
2013-9-24,75,66,57,70,55,52,88,73,47,30.08,30.03,29.95,10,10,10,14,5,,0.00,0,,21
2013-9-25,75,66,57,64,59,54,94,82,65,29.96,29.90,29.83,10,10,8,15,5,,0.20,3,,28
2013-9-26,77,70,62,63,60,50,94,80,44,29.98,29.88,29.83,10,10,8,13,10,,0.16,5,,11
2013-9-27,78,68,59,61,57,54,94,74,44,30.13,30.02,29.97,10,10,10,16,12,18,0.00,1,,21
2013-9-28,77,68,60,61,56,54,82,74,53,30.16,30.12,30.09,10,10,10,16,12,20,0.00,4,,17
2013-9-29,75,66,57,59,55,52,94,77,44,30.12,30.08,30.01,10,10,10,20,9,17,0.00,0,,11
2013-9-30,75,64,53,57,54,48,94,76,47,30.09,30.03,29.99,10,10,10,12,3,,0.00,2,,1